createdAt,value
2023-04-23T00:00:13.529Z,1.73
2023-04-23T00:02:44.799Z,1.88
2023-04-23T00:05:13.080Z,1.70
2023-04-23T00:07:41.868Z,1.70
2023-04-23T00:10:09.749Z,1.95
2023-04-23T00:12:37.060Z,2.33
2023-04-23T00:15:06.958Z,1.50
2023-04-23T00:17:34.117Z,1.13
2023-04-23T00:20:01.344Z,1.48
2023-04-23T00:22:28.678Z,1.23
2023-04-23T00:24:55.989Z,1.10
2023-04-23T00:27:23.213Z,1.33
2023-04-23T00:29:51.485Z,1.50
2023-04-23T00:32:18.924Z,0.75
2023-04-23T00:34:48.880Z,0.88
2023-04-23T00:37:16.335Z,0.88
2023-04-23T00:39:43.965Z,1.17
2023-04-23T00:42:13.964Z,0.88
2023-04-23T00:44:44.554Z,1.48
2023-04-23T00:47:12.324Z,0.93
2023-04-23T00:49:39.637Z,1.27
2023-04-23T00:52:06.988Z,1.40
2023-04-23T00:54:34.458Z,1.27
2023-04-23T00:57:02.503Z,1.73
2023-04-23T00:59:34.101Z,1.25
2023-04-23T01:02:01.820Z,1.35
2023-04-23T01:04:32.318Z,1.92
2023-04-23T01:06:59.954Z,1.50
2023-04-23T01:09:27.920Z,1.75
2023-04-23T01:11:55.993Z,1.90
2023-04-23T01:14:23.512Z,1.48
2023-04-23T01:16:50.861Z,1.88
2023-04-23T01:19:18.208Z,1.30
2023-04-23T01:21:45.843Z,0.90
2023-04-23T01:24:13.026Z,1.55
2023-04-23T01:26:40.778Z,1.70
2023-04-23T01:29:10.302Z,0.90
2023-04-23T01:31:37.562Z,1.30
2023-04-23T01:34:05.359Z,0.93
2023-04-23T01:36:33.561Z,1.50
2023-04-23T01:39:00.686Z,1.90
2023-04-23T01:41:28.739Z,1.63
2023-04-23T01:43:57.714Z,1.30
2023-04-23T01:46:25.201Z,2.17
2023-04-23T01:48:52.460Z,1.25
2023-04-23T01:51:19.866Z,1.23
2023-04-23T01:53:46.989Z,1.20
2023-04-23T01:56:16.220Z,1.60
2023-04-23T01:58:43.400Z,0.98
2023-04-23T02:01:10.759Z,1.25
2023-04-23T02:03:38.111Z,0.90
2023-04-23T02:06:05.793Z,1.50
2023-04-23T02:08:32.948Z,1.15
2023-04-23T02:11:00.206Z,1.27
2023-04-23T02:13:27.375Z,1.17
2023-04-23T02:15:54.584Z,1.00
2023-04-23T02:18:21.948Z,1.55
2023-04-23T02:20:49.539Z,1.33
2023-04-23T02:23:16.674Z,0.77
2023-04-23T02:25:43.857Z,1.20
2023-04-23T02:28:13.433Z,1.38
2023-04-23T02:30:47.216Z,1.50
2023-04-23T02:33:14.491Z,1.85
2023-04-23T02:35:41.652Z,1.50
2023-04-23T02:38:08.860Z,1.67
2023-04-23T02:40:36.492Z,1.80
2023-04-23T02:43:03.824Z,1.88
2023-04-23T02:45:30.965Z,1.63
2023-04-23T02:47:58.217Z,1.45
2023-04-23T02:50:25.556Z,2.08
2023-04-23T02:52:52.671Z,1.85
2023-04-23T02:55:19.951Z,1.90
2023-04-23T02:57:47.093Z,2.38
2023-04-23T03:00:15.205Z,1.45
2023-04-23T03:02:43.795Z,1.80
2023-04-23T03:05:12.773Z,1.88
2023-04-23T03:07:40.289Z,2.10
2023-04-23T03:10:08.438Z,1.92
2023-04-23T03:12:35.980Z,1.98
2023-04-23T03:15:03.295Z,2.47
2023-04-23T03:17:33.116Z,2.15
2023-04-23T03:20:00.970Z,1.83
2023-04-23T03:22:28.255Z,1.30
2023-04-23T03:24:56.074Z,2.03
2023-04-23T03:27:23.457Z,1.95
2023-04-23T03:29:51.035Z,1.65
2023-04-23T03:32:18.500Z,1.55
2023-04-23T03:34:45.796Z,1.48
2023-04-23T03:37:13.757Z,1.63
2023-04-23T03:39:41.769Z,1.38
2023-04-23T03:42:09.515Z,2.88
2023-04-23T03:44:38.335Z,2.20
2023-04-23T03:47:06.226Z,1.83
2023-04-23T03:49:34.320Z,2.03
2023-04-23T03:52:01.397Z,1.30
2023-04-23T03:54:30.496Z,2.60
2023-04-23T03:57:16.570Z,1.65
2023-04-23T04:00:21.897Z,2.97
2023-04-23T04:02:49.217Z,1.73
2023-04-23T04:05:16.915Z,1.88
2023-04-23T04:07:45.976Z,2.75
2023-04-23T04:10:13.229Z,2.85
2023-04-23T04:12:41.919Z,1.75
2023-04-23T04:15:10.966Z,1.65
2023-04-23T04:17:38.198Z,2.25
2023-04-23T04:20:08.216Z,2.42
2023-04-23T04:22:35.562Z,2.03
2023-04-23T04:25:03.243Z,2.10
2023-04-23T04:27:33.496Z,1.50
2023-04-23T04:30:05.849Z,2.90
2023-04-23T04:32:33.356Z,2.08
2023-04-23T04:35:00.812Z,1.88
2023-04-23T04:37:28.145Z,2.47
2023-04-23T04:39:55.267Z,2.38
2023-04-23T04:42:22.397Z,2.08
2023-04-23T04:44:49.510Z,1.98
2023-04-23T04:47:16.986Z,1.73
2023-04-23T04:49:44.377Z,2.10
2023-04-23T04:52:11.716Z,2.85
2023-04-23T04:54:38.966Z,2.88
2023-04-23T04:57:06.597Z,2.42
2023-04-23T04:59:33.751Z,2.60
2023-04-23T05:02:01.059Z,2.50
2023-04-23T05:04:28.257Z,3.47
2023-04-23T05:06:55.753Z,2.20
2023-04-23T05:09:22.997Z,3.00
2023-04-23T05:11:50.157Z,2.85
2023-04-23T05:14:17.475Z,3.17
2023-04-23T05:16:44.831Z,2.53
2023-04-23T05:19:12.075Z,2.17
2023-04-23T05:21:39.890Z,2.53
2023-04-23T05:24:07.547Z,2.40
2023-04-23T05:26:35.058Z,2.17
2023-04-23T05:29:02.260Z,2.60
2023-04-23T05:31:29.618Z,3.38
2023-04-23T05:33:56.947Z,2.08
2023-04-23T05:36:24.156Z,2.70
2023-04-23T05:38:51.393Z,3.17
2023-04-23T05:41:18.572Z,2.03
2023-04-23T05:43:45.840Z,1.92
2023-04-23T05:46:13.076Z,2.22
2023-04-23T05:48:40.282Z,1.65
2023-04-23T05:51:07.461Z,2.03
2023-04-23T05:53:34.714Z,2.25
2023-04-23T05:56:01.897Z,2.28
2023-04-23T05:58:29.118Z,1.52
2023-04-23T06:00:57.758Z,1.98
2023-04-23T06:03:25.382Z,2.50
2023-04-23T06:05:52.738Z,2.00
2023-04-23T06:08:20.527Z,1.90
2023-04-23T06:10:47.798Z,2.10
2023-04-23T06:13:15.000Z,1.60
2023-04-23T06:15:42.374Z,2.30
2023-04-23T06:18:10.544Z,2.42
2023-04-23T06:20:38.000Z,2.08
2023-04-23T06:23:05.196Z,1.83
2023-04-23T06:25:32.400Z,1.42
2023-04-23T06:27:59.641Z,1.98
2023-04-23T06:30:30.573Z,2.17
2023-04-23T06:32:57.764Z,1.70
2023-04-23T06:35:24.922Z,1.65
2023-04-23T06:37:52.217Z,2.50
2023-04-23T06:40:19.584Z,1.60
2023-04-23T06:42:47.711Z,2.63
2023-04-23T06:45:37.155Z,1.77
2023-04-23T06:48:04.494Z,1.63
2023-04-23T06:50:31.750Z,1.40
2023-04-23T06:52:58.991Z,1.60
2023-04-23T06:55:26.478Z,1.48
2023-04-23T06:57:53.855Z,1.95
2023-04-23T07:00:22.569Z,1.58
2023-04-23T07:02:50.569Z,2.42
2023-04-23T07:05:19.116Z,1.90
2023-04-23T07:07:46.229Z,1.50
2023-04-23T07:10:15.549Z,1.60
2023-04-23T07:12:44.106Z,2.03
2023-04-23T07:15:11.732Z,2.00
2023-04-23T07:17:38.995Z,1.92
2023-04-23T07:20:08.601Z,1.42
2023-04-23T07:22:35.796Z,2.22
2023-04-23T07:25:04.518Z,1.63
2023-04-23T07:27:31.718Z,1.20
2023-04-23T07:29:58.964Z,2.17
2023-04-23T07:32:28.458Z,1.73
2023-04-23T07:34:58.860Z,2.45
2023-04-23T07:37:26.461Z,1.33
2023-04-23T07:39:54.101Z,1.70
2023-04-23T07:42:21.378Z,1.40
2023-04-23T07:44:48.533Z,1.33
2023-04-23T07:47:15.744Z,1.27
2023-04-23T07:49:43.249Z,1.65
2023-04-23T07:52:11.056Z,1.90
2023-04-23T07:54:38.309Z,1.65
2023-04-23T07:57:05.587Z,1.30
2023-04-23T07:59:32.826Z,1.52
2023-04-23T08:02:00.781Z,1.23
2023-04-23T08:04:28.581Z,1.50
2023-04-23T08:06:55.880Z,1.98
2023-04-23T08:09:23.136Z,1.73
2023-04-23T08:11:50.487Z,1.67
2023-04-23T08:14:18.663Z,1.45
2023-04-23T08:16:45.809Z,1.60
2023-04-23T08:19:12.910Z,1.80
2023-04-23T08:21:40.189Z,2.22
2023-04-23T08:24:08.060Z,1.65
2023-04-23T08:26:35.474Z,1.55
2023-04-23T08:29:03.272Z,1.70
2023-04-23T08:31:30.585Z,1.73
2023-04-23T08:33:57.979Z,1.20
2023-04-23T08:36:26.208Z,1.60
2023-04-23T08:38:53.442Z,1.88
2023-04-23T08:41:24.657Z,2.00
2023-04-23T08:44:15.918Z,1.70
2023-04-23T08:46:44.598Z,2.42
2023-04-23T08:49:18.826Z,1.67
2023-04-23T08:51:58.780Z,1.77
2023-04-23T08:54:27.310Z,1.80
2023-04-23T08:56:58.827Z,1.65
2023-04-23T08:59:34.350Z,1.63
2023-04-23T09:02:08.072Z,2.17
2023-04-23T09:04:39.400Z,1.85
2023-04-23T09:07:11.515Z,1.65
2023-04-23T09:12:08.640Z,2.42
2023-04-23T09:14:36.599Z,2.13
2023-04-23T09:17:04.138Z,1.52
2023-04-23T09:19:31.370Z,1.77
2023-04-23T09:22:01.159Z,1.65
2023-04-23T09:24:28.633Z,1.80
2023-04-23T09:26:57.809Z,2.40
2023-04-23T09:29:25.616Z,1.80
2023-04-23T09:31:55.982Z,2.20
2023-04-23T09:34:25.430Z,1.77
2023-04-23T09:36:53.758Z,2.17
2023-04-23T09:39:24.857Z,2.72
2023-04-23T09:41:53.866Z,2.30
2023-04-23T09:44:23.217Z,2.17
2023-04-23T09:46:53.890Z,2.22
2023-04-23T09:49:21.218Z,2.08
2023-04-23T09:51:49.973Z,1.55
2023-04-23T09:54:26.441Z,1.98
2023-04-23T09:56:58.919Z,2.53
2023-04-23T10:02:04.076Z,1.70
2023-04-23T10:04:31.755Z,1.60
2023-04-23T10:09:41.978Z,2.03
2023-04-23T10:12:27.890Z,2.00
2023-04-23T10:14:59.813Z,2.30
2023-04-23T10:17:27.392Z,3.03
2023-04-23T10:19:56.035Z,2.38
2023-04-23T10:22:25.508Z,2.33
2023-04-23T10:24:57.263Z,1.92
2023-04-23T10:27:40.427Z,2.28
2023-04-23T10:30:16.571Z,2.22
2023-04-23T10:32:45.083Z,1.77
2023-04-23T10:35:12.541Z,1.73
2023-04-23T10:37:40.525Z,1.50
2023-04-23T10:40:14.554Z,1.77
2023-04-23T10:42:44.404Z,2.72
2023-04-23T10:45:24.600Z,1.73
2023-04-23T10:47:55.941Z,1.42
2023-04-23T10:50:29.741Z,1.63
2023-04-23T10:52:58.480Z,1.73
2023-04-23T10:55:28.444Z,1.48
2023-04-23T10:58:03.146Z,2.42
2023-04-23T11:00:51.759Z,1.77
2023-04-23T11:03:38.772Z,1.67
2023-04-23T11:06:12.476Z,1.20
2023-04-23T11:08:55.049Z,1.40
2023-04-23T11:11:41.566Z,1.27
2023-04-23T11:14:15.671Z,1.20
2023-04-23T11:16:43.201Z,1.42
2023-04-23T11:19:17.888Z,1.20
2023-04-23T11:22:00.230Z,1.08
2023-04-23T11:24:31.738Z,1.42
2023-04-23T11:26:59.937Z,1.17
2023-04-23T11:29:28.886Z,1.08
2023-04-23T11:34:27.136Z,1.10
2023-04-23T11:36:55.002Z,1.40
2023-04-23T11:39:24.333Z,1.35
2023-04-23T11:41:52.781Z,1.77
2023-04-23T11:44:21.541Z,0.88
2023-04-23T11:46:50.076Z,1.00
2023-04-23T11:49:18.809Z,1.15
2023-04-23T11:51:46.816Z,1.13
2023-04-23T11:54:14.867Z,0.95
2023-04-23T11:56:42.531Z,0.65
2023-04-23T11:59:09.874Z,0.47
2023-04-23T12:01:44.728Z,0.85
2023-04-23T12:04:17.314Z,1.15
2023-04-23T12:06:46.922Z,1.10
2023-04-23T12:09:15.243Z,1.20
2023-04-23T12:11:43.818Z,0.98
2023-04-23T12:14:12.472Z,0.90
2023-04-23T12:16:44.691Z,1.20
2023-04-23T12:19:27.504Z,1.20
2023-04-23T12:21:57.306Z,1.25
2023-04-23T12:24:26.277Z,1.20
2023-04-23T12:26:55.099Z,1.45
2023-04-23T12:29:23.496Z,1.65
2023-04-23T12:31:52.469Z,1.73
2023-04-23T12:34:21.473Z,1.75
2023-04-23T12:36:51.165Z,1.73
2023-04-23T12:39:29.949Z,2.08
2023-04-23T12:42:02.948Z,1.30
2023-04-23T12:44:30.794Z,1.33
2023-04-23T12:47:16.083Z,1.20
2023-04-23T12:49:44.119Z,1.80
2023-04-23T12:52:13.804Z,1.20
2023-04-23T12:54:41.856Z,1.17
2023-04-23T12:57:12.501Z,1.83
2023-04-23T12:59:39.897Z,1.20
2023-04-23T13:02:07.538Z,1.13
2023-04-23T13:04:36.445Z,1.02
2023-04-23T13:07:04.398Z,0.90
2023-04-23T13:09:31.687Z,1.40
2023-04-23T13:12:00.400Z,0.82
2023-04-23T13:14:28.354Z,0.98
2023-04-23T13:16:56.877Z,1.20
2023-04-23T13:19:24.313Z,1.20
2023-04-23T13:21:51.443Z,1.17
2023-04-23T13:24:18.656Z,0.80
2023-04-23T13:26:45.914Z,0.63
2023-04-23T13:29:13.309Z,0.90
2023-04-23T13:31:40.759Z,1.00
2023-04-23T13:34:08.282Z,1.33
2023-04-23T13:36:41.349Z,1.42
2023-04-23T13:39:09.221Z,1.05
2023-04-23T13:41:36.532Z,0.80
2023-04-23T13:44:03.723Z,0.80
2023-04-23T13:46:31.025Z,0.98
2023-04-23T13:48:58.385Z,0.80
2023-04-23T13:51:34.756Z,0.85
2023-04-23T13:54:02.887Z,0.80
2023-04-23T13:56:30.928Z,1.15
2023-04-23T13:59:18.983Z,0.90
2023-04-23T14:01:50.135Z,1.25
2023-04-23T14:04:19.033Z,1.17
2023-04-23T14:06:46.301Z,1.40
2023-04-23T14:09:13.704Z,1.25
2023-04-23T14:11:41.667Z,1.52
2023-04-23T14:14:09.001Z,1.50
2023-04-23T14:16:36.551Z,1.88
2023-04-23T14:19:03.849Z,1.73
2023-04-23T14:21:31.434Z,1.83
2023-04-23T14:24:08.615Z,2.47
2023-04-23T14:26:48.048Z,1.88
2023-04-23T14:29:34.488Z,2.80
2023-04-23T14:32:01.658Z,2.33
2023-04-23T14:34:28.879Z,2.78
2023-04-23T14:36:56.110Z,2.17
2023-04-23T14:39:25.785Z,2.15
2023-04-23T14:41:56.609Z,2.80
2023-04-23T14:44:24.890Z,2.60
2023-04-23T14:46:52.448Z,2.97
2023-04-23T14:49:21.110Z,2.50
2023-04-23T14:51:58.503Z,3.40
2023-04-23T14:54:25.720Z,2.90
2023-04-23T14:56:53.005Z,3.10
2023-04-23T14:59:21.936Z,3.30
2023-04-23T15:01:49.359Z,3.58
2023-04-23T15:04:16.751Z,4.45
2023-04-23T15:06:43.972Z,3.13
2023-04-23T15:09:11.337Z,4.13
2023-04-23T15:11:38.897Z,3.95
2023-04-23T15:14:22.926Z,3.53
2023-04-23T15:16:50.521Z,4.13
2023-04-23T15:19:19.047Z,3.70
2023-04-23T15:21:47.567Z,3.72
2023-04-23T15:24:16.285Z,3.60
2023-04-23T15:26:45.863Z,3.92
2023-04-23T15:29:13.657Z,3.35
2023-04-23T15:31:41.897Z,4.20
2023-04-23T15:34:09.758Z,4.50
2023-04-23T15:36:38.022Z,5.28
2023-04-23T15:39:06.996Z,4.57
2023-04-23T15:41:37.476Z,3.83
2023-04-23T15:44:10.947Z,4.80
2023-04-23T15:46:38.227Z,4.45
2023-04-23T15:49:05.792Z,3.72
2023-04-23T15:51:33.090Z,4.20
2023-04-23T15:54:02.271Z,4.05
2023-04-23T15:56:29.535Z,3.95
2023-04-23T15:58:57.113Z,4.13
2023-04-23T16:01:26.381Z,4.18
2023-04-23T16:04:09.812Z,3.92
2023-04-23T16:06:37.998Z,3.17
2023-04-23T16:09:08.592Z,4.80
2023-04-23T16:11:39.958Z,3.83
2023-04-23T16:14:09.554Z,4.35
2023-04-23T16:16:38.293Z,3.70
2023-04-23T16:19:06.514Z,4.53
2023-04-23T16:21:33.646Z,3.75
2023-04-23T16:24:00.774Z,3.35
2023-04-23T16:26:29.067Z,3.90
2023-04-23T16:29:16.742Z,3.30
2023-04-23T16:31:43.929Z,3.53
2023-04-23T16:34:11.191Z,3.33
2023-04-23T16:36:38.482Z,3.35
2023-04-23T16:39:05.654Z,2.90
2023-04-23T16:41:33.034Z,3.42
2023-04-23T16:44:00.481Z,3.22
2023-04-23T16:46:31.008Z,3.38
2023-04-23T16:48:58.519Z,3.53
2023-04-23T16:51:26.999Z,2.95
2023-04-23T16:53:54.342Z,3.25
2023-04-23T16:56:22.201Z,3.30
2023-04-23T16:58:49.613Z,3.60
2023-04-23T17:01:17.865Z,4.35
2023-04-23T17:03:46.040Z,4.78
2023-04-23T17:06:29.752Z,4.32
2023-04-23T17:08:59.048Z,4.55
2023-04-23T17:11:27.495Z,4.05
2023-04-23T17:13:55.686Z,3.97
2023-04-23T17:16:23.338Z,3.63
2023-04-23T17:18:50.613Z,3.95
2023-04-23T17:21:17.866Z,3.97
2023-04-23T17:23:45.954Z,4.25
2023-04-23T17:26:13.949Z,3.80
2023-04-23T17:28:41.249Z,3.83
2023-04-23T17:31:09.186Z,2.33
2023-04-23T17:33:36.469Z,2.08
2023-04-23T17:36:04.331Z,1.70
2023-04-23T17:38:31.537Z,1.95
2023-04-23T17:40:59.442Z,2.35
2023-04-23T17:43:27.379Z,2.40
2023-04-23T17:45:54.641Z,1.92
2023-04-23T17:48:23.023Z,2.20
2023-04-23T17:50:51.046Z,2.95
2023-04-23T17:53:18.536Z,3.00
2023-04-23T17:55:45.719Z,3.75
2023-04-23T17:58:12.964Z,4.55
2023-04-23T18:00:42.541Z,4.95
2023-04-23T18:03:11.733Z,5.10
2023-04-23T18:05:39.509Z,6.85
2023-04-23T18:08:07.829Z,7.15
2023-04-23T18:10:38.052Z,8.40
2023-04-23T18:13:07.299Z,8.43
2023-04-23T18:15:34.682Z,7.53
2023-04-23T18:18:01.957Z,6.90
2023-04-23T18:20:30.300Z,6.55
2023-04-23T18:22:57.601Z,6.13
2023-04-23T18:25:25.494Z,4.93
2023-04-23T18:27:52.850Z,5.30
2023-04-23T18:30:23.401Z,3.53
2023-04-23T18:32:59.517Z,4.00
2023-04-23T18:35:26.928Z,4.60
2023-04-23T18:38:02.447Z,4.30
2023-04-23T18:40:29.676Z,4.93
2023-04-23T18:42:56.895Z,4.53
2023-04-23T18:45:24.081Z,4.82
2023-04-23T18:47:56.481Z,5.70
2023-04-23T18:50:44.215Z,5.50
2023-04-23T18:53:11.342Z,5.85
2023-04-23T18:55:38.600Z,6.05
2023-04-23T18:58:05.868Z,4.80
2023-04-23T19:00:33.179Z,5.45
2023-04-23T19:03:04.396Z,4.85
2023-04-23T19:05:34.123Z,4.18
2023-04-23T19:08:03.391Z,4.68
2023-04-23T19:10:30.891Z,4.85
2023-04-23T19:12:59.030Z,4.32
2023-04-23T19:15:26.152Z,5.18
2023-04-23T19:17:53.682Z,4.10
2023-04-23T19:20:21.045Z,4.47
2023-04-23T19:22:48.284Z,4.25
2023-04-23T19:25:15.465Z,3.72
2023-04-23T19:27:42.750Z,2.78
2023-04-23T19:30:10.729Z,2.70
2023-04-23T19:32:40.793Z,3.20
2023-04-23T19:35:08.313Z,2.50
2023-04-23T19:37:37.279Z,3.55
2023-04-23T19:40:05.061Z,2.05
2023-04-23T19:42:32.691Z,2.30
2023-04-23T19:45:00.227Z,2.70
2023-04-23T19:47:28.045Z,3.17
2023-04-23T19:49:56.254Z,2.83
2023-04-23T19:52:27.950Z,2.80
2023-04-23T19:54:55.105Z,3.03
2023-04-23T19:57:22.435Z,3.53
2023-04-23T19:59:49.667Z,3.55
2023-04-23T20:02:17.158Z,3.25
2023-04-23T20:04:45.815Z,3.38
2023-04-23T20:07:13.290Z,3.60
2023-04-23T20:09:42.183Z,4.55
2023-04-23T20:12:09.568Z,4.97
2023-04-23T20:14:36.829Z,5.35
2023-04-23T20:17:04.486Z,4.85
2023-04-23T20:19:31.802Z,6.10
2023-04-23T20:21:59.007Z,5.28
2023-04-23T20:24:26.286Z,4.00
2023-04-23T20:26:53.652Z,6.13
2023-04-23T20:29:20.808Z,4.75
2023-04-23T20:31:49.604Z,4.70
2023-04-23T20:34:17.046Z,4.88
2023-04-23T20:36:47.254Z,5.38
2023-04-23T20:39:15.339Z,5.50
2023-04-23T20:41:42.576Z,5.70
2023-04-23T20:44:12.139Z,5.50
2023-04-23T20:46:39.538Z,4.78
2023-04-23T20:49:07.610Z,4.72
2023-04-23T20:51:35.145Z,5.25
2023-04-23T20:54:03.159Z,5.63
2023-04-23T20:56:30.858Z,6.45
2023-04-23T20:58:58.709Z,6.68
2023-04-23T21:01:26.055Z,6.35
2023-04-23T21:03:54.008Z,5.38
2023-04-23T21:06:22.654Z,6.82
2023-04-23T21:08:52.108Z,6.22
2023-04-23T21:11:20.426Z,6.05
2023-04-23T21:13:47.716Z,6.68
2023-04-23T21:16:15.250Z,7.93
2023-04-23T21:18:45.344Z,8.35
2023-04-23T21:21:15.883Z,8.68
2023-04-23T21:23:43.022Z,9.52
2023-04-23T21:26:12.860Z,8.57
2023-04-23T21:28:40.262Z,7.47
2023-04-23T21:31:16.518Z,8.77
2023-04-23T21:33:44.181Z,10.07
2023-04-23T21:36:11.320Z,10.15
2023-04-23T21:38:38.485Z,8.77
2023-04-23T21:41:06.421Z,9.18
2023-04-23T21:43:35.586Z,10.30
2023-04-23T21:46:02.825Z,9.68
2023-04-23T21:48:32.033Z,10.07
2023-04-23T21:50:59.190Z,10.05
2023-04-23T21:53:26.368Z,9.98
2023-04-23T21:55:53.680Z,8.95
2023-04-23T21:58:21.012Z,9.50
2023-04-23T22:00:49.076Z,11.65
2023-04-23T22:03:19.676Z,11.27
2023-04-23T22:06:01.551Z,10.95
2023-04-23T22:08:30.588Z,9.35
2023-04-23T22:10:57.710Z,11.13
2023-04-23T22:13:24.928Z,12.18
2023-04-23T22:15:52.174Z,10.82
2023-04-23T22:18:19.395Z,13.02
2023-04-23T22:20:49.570Z,12.15
2023-04-23T22:23:17.138Z,12.68
2023-04-23T22:25:44.887Z,10.43
2023-04-23T22:28:12.641Z,12.40
2023-04-23T22:30:40.232Z,11.52
2023-04-23T22:33:07.690Z,13.52
2023-04-23T22:35:34.889Z,13.73
2023-04-23T22:38:02.251Z,16.00
2023-04-23T22:40:29.502Z,14.30
2023-04-23T22:42:56.711Z,13.55
2023-04-23T22:45:23.963Z,12.77
2023-04-23T22:47:51.216Z,11.23
2023-04-23T22:50:18.572Z,11.20
2023-04-23T22:52:45.763Z,13.95
2023-04-23T22:55:12.974Z,13.75
2023-04-23T22:57:40.311Z,12.65
2023-04-23T23:00:08.286Z,12.50
2023-04-23T23:02:35.983Z,12.43
2023-04-23T23:05:04.566Z,11.45
2023-04-23T23:07:36.783Z,13.43
2023-04-23T23:10:08.644Z,14.02
2023-04-23T23:12:36.943Z,14.88
2023-04-23T23:15:04.419Z,13.93
2023-04-23T23:17:31.628Z,14.98
2023-04-23T23:19:58.913Z,13.45
2023-04-23T23:22:27.194Z,14.15
2023-04-23T23:24:54.347Z,17.45
2023-04-23T23:27:21.604Z,16.30
2023-04-23T23:29:48.780Z,15.85
2023-04-23T23:32:16.100Z,20.98
2023-04-23T23:34:43.490Z,19.60
2023-04-23T23:37:11.201Z,18.23
2023-04-23T23:39:38.357Z,18.65
2023-04-23T23:42:05.596Z,22.33
2023-04-23T23:44:32.889Z,20.13
2023-04-23T23:47:00.456Z,23.10
2023-04-23T23:49:27.750Z,23.10
2023-04-23T23:51:55.023Z,20.73
2023-04-23T23:54:22.149Z,20.75
2023-04-23T23:56:49.291Z,23.58
2023-04-23T23:59:16.381Z,23.27
